Terminal Aerodrome Forecast
Issued by NWS

Home | Current Version | Previous Version | Text Only | Print | Product List | Glossary On
Versions: 1 2 3 4 5 6 7 8 9 10 11 12 13 14 15
000
FTUS42 TJSJ 231143
TAFIST
TAF
TIST 231143Z 2312/2412 09012KT P6SM VCSH SCT020 BKN035
      TEMPO 2312/2313 -RA BKN020
     FM231330 12014KT P6SM SCT025
     FM232300 08008KT P6SM FEW025=

USA.gov is the U.S. government's official web portal to all federal, state and local government web resources and services.